Sterling City, Texas
Current Conditions -  °F | °C
As of 9:55 AM on Wednesday 28 Jan 2015 (Local Time) from KBPG Reporting Station
Clear Clear  
Wind Chill: 59°   Ceiling: Unl
Heat Index: 59°   Visibility: 10mi
Dew Point: 41°   Wind: 7mph
Humidity: 52%   Direction: 200°SSW
Pressure: 30.18"   Gusts: NA
Location:  31.84°N, 100.98°W
Report Text: KBPG 281555Z AUTO 20006KT 10SM CLR 15/05 A3018 RMK AO2 T01480051
Loading
Personal Weather Stations






























Interactive Weather Map New forecast layout! Learn more

10-Day Weather Forecast

Advertisements
Track Severe Weather on mobile